createdAt,value
2017-11-12T00:00:06.609Z,19.30
2017-11-12T00:02:32.920Z,22.27
2017-11-12T00:05:14.772Z,18.93
2017-11-12T00:07:40.968Z,17.67
2017-11-12T00:10:07.149Z,17.20
2017-11-12T00:12:33.673Z,16.50
2017-11-12T00:14:59.854Z,16.70
2017-11-12T00:17:26.054Z,17.20
2017-11-12T00:19:52.295Z,16.83
2017-11-12T00:22:18.504Z,22.10
2017-11-12T00:24:45.463Z,17.37
2017-11-12T00:27:12.390Z,16.83
2017-11-12T00:29:38.623Z,15.87
2017-11-12T00:32:05.653Z,21.30
2017-11-12T00:34:32.599Z,21.63
2017-11-12T00:36:58.800Z,22.30
2017-11-12T00:39:25.050Z,19.67
2017-11-12T00:41:52.082Z,19.47
2017-11-12T00:44:18.298Z,20.17
2017-11-12T00:46:44.472Z,18.00
2017-11-12T00:49:10.715Z,23.37
2017-11-12T00:51:37.703Z,17.60
2017-11-12T00:54:04.657Z,22.83
2017-11-12T00:56:32.163Z,20.53
2017-11-12T00:58:59.480Z,19.83
2017-11-12T01:01:25.730Z,15.77
2017-11-12T01:03:51.977Z,16.87
2017-11-12T01:06:18.957Z,20.60
2017-11-12T01:08:45.309Z,19.77
2017-11-12T01:11:14.151Z,20.37
2017-11-12T01:13:41.118Z,18.43
2017-11-12T01:16:07.403Z,18.10
2017-11-12T01:18:33.598Z,22.90
2017-11-12T01:21:00.813Z,20.63
2017-11-12T01:23:27.740Z,19.90
2017-11-12T01:25:53.963Z,17.80
2017-11-12T01:28:20.181Z,22.87
2017-11-12T01:30:46.411Z,18.70
2017-11-12T01:33:13.628Z,22.40
2017-11-12T01:35:39.812Z,19.40
2017-11-12T01:38:06.063Z,17.13
2017-11-12T01:40:32.643Z,18.67
2017-11-12T01:42:59.000Z,24.20
2017-11-12T01:45:26.400Z,16.20
2017-11-12T01:47:52.610Z,21.00
2017-11-12T01:50:19.570Z,17.30
2017-11-12T01:52:45.783Z,23.17
2017-11-12T01:55:12.719Z,19.73
2017-11-12T01:57:39.835Z,17.73
2017-11-12T02:00:06.082Z,21.30
2017-11-12T02:02:32.329Z,17.23
2017-11-12T02:05:00.332Z,20.80
2017-11-12T02:07:26.640Z,18.87
2017-11-12T02:09:52.844Z,20.27
2017-11-12T02:12:19.102Z,16.83
2017-11-12T02:14:46.286Z,16.10
2017-11-12T02:17:12.604Z,18.40
2017-11-12T02:19:39.710Z,16.30
2017-11-12T02:22:05.927Z,13.47
2017-11-12T02:24:32.769Z,18.73
2017-11-12T02:26:59.988Z,15.63
2017-11-12T02:29:26.334Z,17.90
2017-11-12T02:31:52.665Z,21.23
2017-11-12T02:34:21.123Z,19.87
2017-11-12T02:36:47.363Z,19.87
2017-11-12T02:39:13.648Z,17.47
2017-11-12T02:41:40.710Z,23.33
2017-11-12T02:44:10.617Z,28.97
2017-11-12T02:46:37.636Z,23.90
2017-11-12T02:49:03.926Z,20.87
2017-11-12T02:51:30.173Z,20.67
2017-11-12T02:53:57.320Z,26.13
2017-11-12T02:56:24.741Z,20.43
2017-11-12T02:58:51.671Z,19.90
2017-11-12T03:01:18.616Z,21.30
2017-11-12T03:03:45.663Z,20.90
2017-11-12T03:06:12.819Z,25.93
2017-11-12T03:08:39.793Z,22.07
2017-11-12T03:11:06.972Z,19.77
2017-11-12T03:13:33.932Z,25.20
2017-11-12T03:16:00.219Z,24.30
2017-11-12T03:18:26.398Z,17.77
2017-11-12T03:20:52.631Z,20.33
2017-11-12T03:23:19.700Z,19.70
2017-11-12T03:25:47.624Z,19.50
2017-11-12T03:28:14.224Z,19.07
2017-11-12T03:30:40.584Z,17.33
2017-11-12T03:33:06.826Z,24.07
2017-11-12T03:35:33.028Z,20.60
2017-11-12T03:37:59.268Z,16.13
2017-11-12T03:40:26.240Z,19.13
2017-11-12T03:42:53.448Z,24.27
2017-11-12T03:45:19.720Z,18.03
2017-11-12T03:47:47.684Z,17.87
2017-11-12T03:50:14.752Z,21.73
2017-11-12T03:52:42.378Z,20.03
2017-11-12T03:55:08.720Z,17.90
2017-11-12T03:57:34.954Z,15.60
2017-11-12T04:00:02.160Z,18.20
2017-11-12T04:02:29.931Z,20.10
2017-11-12T04:04:56.176Z,16.20
2017-11-12T04:07:22.405Z,20.03
2017-11-12T04:09:49.542Z,21.00
2017-11-12T04:12:15.797Z,19.10
2017-11-12T04:14:43.718Z,16.70
2017-11-12T04:17:10.730Z,17.00
2017-11-12T04:19:37.949Z,16.63
2017-11-12T04:22:04.134Z,14.87
2017-11-12T04:24:32.807Z,17.97
2017-11-12T04:26:58.998Z,17.10
2017-11-12T04:29:25.212Z,15.37
2017-11-12T04:31:52.148Z,17.83
2017-11-12T04:34:19.071Z,20.40
2017-11-12T04:36:46.219Z,16.83
2017-11-12T04:39:14.380Z,13.60
2017-11-12T04:41:40.845Z,14.77
2017-11-12T04:44:07.800Z,22.40
2017-11-12T04:46:36.229Z,21.83
2017-11-12T04:49:03.487Z,14.90
2017-11-12T04:51:30.670Z,21.90
2017-11-12T04:53:57.783Z,16.50
2017-11-12T04:56:24.080Z,15.67
2017-11-12T04:58:50.317Z,20.43
2017-11-12T05:01:17.477Z,20.03
2017-11-12T05:03:43.672Z,16.50
2017-11-12T05:06:10.653Z,13.00
2017-11-12T05:08:37.621Z,15.70
2017-11-12T05:11:04.351Z,12.50
2017-11-12T05:13:30.695Z,17.20
2017-11-12T05:15:58.803Z,12.80
2017-11-12T05:18:25.747Z,15.80
2017-11-12T05:20:53.835Z,16.80
2017-11-12T05:23:20.857Z,15.93
2017-11-12T05:25:47.915Z,15.00
2017-11-12T05:28:14.859Z,14.60
2017-11-12T05:30:41.854Z,15.33
2017-11-12T05:33:09.589Z,18.20
2017-11-12T05:35:37.656Z,16.33
2017-11-12T05:38:05.424Z,16.33
2017-11-12T05:40:33.127Z,17.40
2017-11-12T05:42:59.341Z,16.70
2017-11-12T05:45:27.558Z,18.40
2017-11-12T05:47:55.595Z,18.13
2017-11-12T05:50:21.779Z,14.30
2017-11-12T05:52:48.744Z,13.03
2017-11-12T05:55:15.705Z,12.43
2017-11-12T05:57:41.973Z,16.20
2017-11-12T06:00:08.196Z,15.43
2017-11-12T06:02:35.459Z,14.70
2017-11-12T06:05:02.889Z,12.80
2017-11-12T06:07:30.126Z,20.83
2017-11-12T06:09:57.338Z,13.57
2017-11-12T06:12:23.684Z,13.40
2017-11-12T06:14:50.641Z,13.87
2017-11-12T06:17:17.678Z,12.00
2017-11-12T06:19:45.711Z,13.03
2017-11-12T06:22:11.993Z,11.40
2017-11-12T06:24:38.211Z,15.43
2017-11-12T06:27:06.164Z,12.60
2017-11-12T06:29:33.177Z,15.60
2017-11-12T06:32:00.905Z,15.30
2017-11-12T06:34:27.121Z,17.60
2017-11-12T06:36:54.766Z,13.70
2017-11-12T06:39:22.030Z,12.37
2017-11-12T06:41:48.990Z,13.20
2017-11-12T06:44:15.984Z,13.40
2017-11-12T06:46:42.642Z,18.87
2017-11-12T06:49:09.076Z,21.30
2017-11-12T06:51:38.534Z,23.60
2017-11-12T06:54:05.807Z,21.43
2017-11-12T06:56:32.832Z,26.47
2017-11-12T06:58:58.993Z,22.00
2017-11-12T07:01:25.808Z,20.00
2017-11-12T07:03:52.073Z,21.60
2017-11-12T07:06:18.303Z,17.17
2017-11-12T07:08:45.414Z,23.87
2017-11-12T07:11:12.459Z,22.73
2017-11-12T07:13:38.658Z,19.73
2017-11-12T07:16:05.690Z,19.27
2017-11-12T07:18:32.105Z,22.47
2017-11-12T07:20:58.545Z,22.20
2017-11-12T07:23:25.207Z,20.40
2017-11-12T07:25:53.002Z,14.17
2017-11-12T07:28:21.633Z,21.23
2017-11-12T07:30:47.835Z,24.77
2017-11-12T07:33:14.121Z,22.77
2017-11-12T07:35:41.978Z,20.57
2017-11-12T07:38:09.834Z,21.90
2017-11-12T07:40:36.032Z,25.00
2017-11-12T07:43:03.246Z,27.73
2017-11-12T07:45:31.147Z,21.50
2017-11-12T07:47:57.372Z,19.93
2017-11-12T07:50:23.967Z,28.77
2017-11-12T07:52:50.912Z,18.87
2017-11-12T07:55:18.893Z,29.83
2017-11-12T07:57:45.927Z,26.33
2017-11-12T08:00:13.253Z,25.83
2017-11-12T08:02:40.393Z,22.10
2017-11-12T08:05:08.101Z,22.13
2017-11-12T08:07:35.036Z,19.70
2017-11-12T08:10:01.419Z,26.50
2017-11-12T08:12:29.028Z,24.77
2017-11-12T08:14:56.115Z,24.10
2017-11-12T08:17:22.299Z,20.37
2017-11-12T08:19:48.522Z,23.57
2017-11-12T08:22:15.610Z,22.83
2017-11-12T08:24:44.383Z,21.97
2017-11-12T08:27:10.972Z,26.90
2017-11-12T08:29:37.211Z,23.27
2017-11-12T08:32:03.819Z,24.20
2017-11-12T08:34:30.036Z,21.57
2017-11-12T08:36:56.240Z,24.40
2017-11-12T08:39:22.533Z,21.80
2017-11-12T08:41:49.558Z,22.03
2017-11-12T08:44:17.252Z,33.23
2017-11-12T08:46:45.982Z,28.90
2017-11-12T08:49:13.027Z,21.27
2017-11-12T08:51:41.505Z,26.57
2017-11-12T08:54:09.840Z,21.43
2017-11-12T08:56:36.140Z,24.70
2017-11-12T08:59:03.219Z,20.83
2017-11-12T09:01:30.960Z,17.03
2017-11-12T09:03:57.238Z,20.90
2017-11-12T09:06:23.489Z,17.57
2017-11-12T09:08:50.469Z,14.97
2017-11-12T09:11:16.671Z,14.27
2017-11-12T09:13:43.649Z,13.50
2017-11-12T09:16:09.879Z,16.10
2017-11-12T09:18:36.363Z,20.17
2017-11-12T09:21:04.144Z,16.37
2017-11-12T09:23:31.883Z,19.13
2017-11-12T09:25:58.110Z,14.40
2017-11-12T09:28:25.306Z,16.87
2017-11-12T09:30:51.705Z,13.60
2017-11-12T09:33:17.961Z,15.13
2017-11-12T09:35:44.943Z,14.17
2017-11-12T09:38:11.209Z,17.00
2017-11-12T09:40:37.465Z,11.80
2017-11-12T09:43:04.484Z,11.43
2017-11-12T09:45:31.746Z,16.93
2017-11-12T09:47:59.514Z,10.30
2017-11-12T09:50:25.893Z,13.43
2017-11-12T09:52:53.128Z,9.77
2017-11-12T09:55:19.370Z,10.00
2017-11-12T09:57:45.878Z,10.30
2017-11-12T10:00:14.098Z,10.03
2017-11-12T10:02:41.235Z,13.90
2017-11-12T10:14:52.491Z,10.80
2017-11-12T10:17:18.792Z,11.47
2017-11-12T10:19:46.507Z,6.67
2017-11-12T10:22:12.701Z,6.10
2017-11-12T10:24:39.714Z,7.20
2017-11-12T10:27:08.538Z,5.27
2017-11-12T10:29:34.750Z,5.20
2017-11-12T10:32:02.633Z,6.90
2017-11-12T10:34:28.843Z,3.87
2017-11-12T10:36:55.807Z,4.17
2017-11-12T10:39:22.064Z,3.87
2017-11-12T10:41:48.416Z,4.93
2017-11-12T10:44:15.648Z,4.90
2017-11-12T10:46:41.874Z,4.93
2017-11-12T10:49:08.887Z,3.80
2017-11-12T10:51:35.890Z,4.07
2017-11-12T10:54:02.212Z,3.73
2017-11-12T10:56:29.191Z,6.20
2017-11-12T10:58:56.467Z,4.93
2017-11-12T11:01:22.690Z,5.90
2017-11-12T11:03:49.666Z,4.20
2017-11-12T11:06:16.262Z,5.10
2017-11-12T11:08:43.518Z,4.40
2017-11-12T11:11:10.511Z,3.07
2017-11-12T11:13:40.361Z,4.60
2017-11-12T11:16:06.615Z,3.63
2017-11-12T11:18:33.582Z,3.87
2017-11-12T11:20:59.835Z,4.23
2017-11-12T11:23:26.836Z,2.90
2017-11-12T11:25:53.818Z,3.83
2017-11-12T11:28:20.093Z,3.67
2017-11-12T11:30:46.315Z,6.60
2017-11-12T11:33:12.925Z,7.93
2017-11-12T11:35:39.953Z,8.53
2017-11-12T11:38:07.464Z,7.30
2017-11-12T11:40:33.907Z,4.70
2017-11-12T11:43:00.060Z,3.83
2017-11-12T11:45:27.774Z,6.20
2017-11-12T11:47:54.741Z,4.70
2017-11-12T11:50:20.973Z,2.40
2017-11-12T11:52:47.990Z,2.83
2017-11-12T11:55:14.270Z,2.70
2017-11-12T11:57:41.310Z,3.23
2017-11-12T12:00:08.288Z,3.73
2017-11-12T12:02:34.498Z,2.70
2017-11-12T12:05:00.791Z,3.30
2017-11-12T12:07:27.045Z,4.10
2017-11-12T12:09:53.996Z,2.47
2017-11-12T12:12:20.947Z,5.30
2017-11-12T12:14:47.179Z,5.17
2017-11-12T12:17:13.397Z,3.20
2017-11-12T12:19:41.288Z,3.70
2017-11-12T12:22:07.581Z,4.20
2017-11-12T12:24:33.826Z,2.80
2017-11-12T12:27:00.846Z,4.03
2017-11-12T12:29:27.040Z,3.53
2017-11-12T12:31:53.260Z,5.23
2017-11-12T12:34:20.428Z,3.97
2017-11-12T12:36:46.996Z,3.57
2017-11-12T12:39:13.250Z,4.00
2017-11-12T12:41:40.619Z,3.37
2017-11-12T12:44:07.944Z,2.03
2017-11-12T12:46:34.241Z,3.13
2017-11-12T12:49:00.724Z,4.83
2017-11-12T12:51:27.739Z,3.73
2017-11-12T12:53:56.211Z,3.40
2017-11-12T12:56:22.544Z,4.17
2017-11-12T12:58:48.759Z,3.30
2017-11-12T13:01:16.003Z,3.73
2017-11-12T13:03:42.243Z,5.10
2017-11-12T13:06:10.216Z,3.07
2017-11-12T13:08:36.444Z,4.50
2017-11-12T13:11:02.812Z,3.80
2017-11-12T13:13:29.026Z,3.80
2017-11-12T13:15:56.249Z,4.13
2017-11-12T13:18:22.534Z,7.67
2017-11-12T13:20:51.324Z,8.60
2017-11-12T13:23:19.048Z,6.77
2017-11-12T13:25:45.372Z,6.43
2017-11-12T13:28:12.400Z,3.80
2017-11-12T13:30:40.131Z,4.57
2017-11-12T13:33:07.120Z,3.33
2017-11-12T13:35:34.904Z,2.87
2017-11-12T13:38:01.238Z,3.23
2017-11-12T13:40:29.415Z,4.47
2017-11-12T13:42:55.760Z,2.63
2017-11-12T13:45:22.883Z,5.00
2017-11-12T13:47:50.011Z,2.50
2017-11-12T13:50:16.245Z,2.77
2017-11-12T13:52:43.420Z,5.10
2017-11-12T13:55:09.636Z,2.67
2017-11-12T13:57:36.704Z,3.83
2017-11-12T14:00:03.916Z,4.03
2017-11-12T14:02:30.135Z,4.50
2017-11-12T14:04:59.014Z,4.10
2017-11-12T14:07:26.759Z,3.47
2017-11-12T14:09:52.964Z,3.37
2017-11-12T14:12:19.140Z,3.17
2017-11-12T14:14:47.073Z,4.27
2017-11-12T14:17:13.246Z,7.97
2017-11-12T14:19:40.292Z,4.53
2017-11-12T14:22:08.208Z,5.67
2017-11-12T14:24:35.308Z,3.43
2017-11-12T14:27:02.298Z,3.30
2017-11-12T14:29:31.234Z,5.40
2017-11-12T14:31:59.074Z,4.47
2017-11-12T14:34:25.825Z,7.87
2017-11-12T14:36:52.021Z,3.97
2017-11-12T14:39:18.247Z,4.00
2017-11-12T14:41:45.464Z,4.80
2017-11-12T14:44:12.446Z,7.80
2017-11-12T14:46:40.560Z,5.43
2017-11-12T14:49:08.345Z,6.90
2017-11-12T14:51:35.686Z,5.63
2017-11-12T14:54:01.912Z,4.37
2017-11-12T14:56:30.135Z,4.73
2017-11-12T14:58:56.818Z,11.33
2017-11-12T15:01:23.398Z,5.87
2017-11-12T15:03:50.729Z,5.27
2017-11-12T15:06:18.729Z,7.90
2017-11-12T15:08:44.956Z,6.10
2017-11-12T15:11:11.214Z,6.07
2017-11-12T15:13:37.524Z,6.73
2017-11-12T15:16:03.956Z,5.53
2017-11-12T15:18:30.220Z,5.30
2017-11-12T15:20:57.004Z,7.30
2017-11-12T15:23:23.977Z,7.70
2017-11-12T15:25:50.311Z,6.13
2017-11-12T15:28:16.564Z,5.67
2017-11-12T15:30:43.511Z,7.50
2017-11-12T15:33:09.733Z,6.50
2017-11-12T15:35:50.904Z,8.10
2017-11-12T15:38:17.172Z,6.10
2017-11-12T15:40:44.334Z,4.70
2017-11-12T15:43:11.360Z,7.73
2017-11-12T15:45:37.661Z,7.43
2017-11-12T15:48:03.904Z,7.17
2017-11-12T15:50:30.167Z,8.43
2017-11-12T15:52:56.590Z,6.07
2017-11-12T15:55:22.871Z,6.40
2017-11-12T15:57:49.121Z,6.80
2017-11-12T16:00:17.507Z,6.90
2017-11-12T16:02:45.092Z,5.93
2017-11-12T16:05:13.381Z,8.23
2017-11-12T16:07:39.669Z,7.13
2017-11-12T16:10:05.924Z,7.67
2017-11-12T16:12:32.160Z,8.67
2017-11-12T16:14:58.752Z,10.87
2017-11-12T16:17:24.978Z,8.93
2017-11-12T16:19:51.720Z,12.67
2017-11-12T16:22:17.943Z,9.87
2017-11-12T16:24:46.299Z,13.30
2017-11-12T16:27:14.296Z,14.97
2017-11-12T16:29:40.530Z,10.80
2017-11-12T16:32:06.865Z,10.87
2017-11-12T16:34:33.938Z,10.30
2017-11-12T16:37:00.248Z,12.37
2017-11-12T16:39:26.640Z,13.07
2017-11-12T16:41:53.277Z,10.60
2017-11-12T16:44:20.292Z,10.70
2017-11-12T16:46:46.582Z,8.30
2017-11-12T16:49:14.128Z,6.97
2017-11-12T16:51:41.627Z,7.77
2017-11-12T16:54:07.990Z,6.37
2017-11-12T16:56:35.873Z,10.13
2017-11-12T16:59:04.203Z,7.50
2017-11-12T17:01:31.381Z,5.70
2017-11-12T17:03:58.494Z,9.90
2017-11-12T17:06:24.811Z,4.93
2017-11-12T17:08:53.245Z,7.60
2017-11-12T17:11:19.486Z,4.90
2017-11-12T17:13:47.496Z,6.90
2017-11-12T17:16:14.518Z,14.93
2017-11-12T17:18:43.280Z,9.53
2017-11-12T17:21:10.214Z,4.90
2017-11-12T17:23:36.454Z,3.80
2017-11-12T17:26:03.530Z,4.90
2017-11-12T17:28:30.529Z,2.90
2017-11-12T17:30:56.777Z,12.83
2017-11-12T17:33:23.035Z,4.00
2017-11-12T17:35:52.229Z,4.70
2017-11-12T17:38:19.502Z,4.47
2017-11-12T17:40:46.097Z,6.53
2017-11-12T17:43:12.314Z,9.70
2017-11-12T17:45:38.669Z,4.97
2017-11-12T17:48:05.626Z,3.80
2017-11-12T17:50:32.680Z,3.80
2017-11-12T17:53:00.122Z,5.50
2017-11-12T17:55:27.123Z,4.50
2017-11-12T17:57:53.480Z,5.00
2017-11-12T18:00:19.755Z,7.57
2017-11-12T18:02:53.247Z,7.27
2017-11-12T18:05:20.540Z,7.73
2017-11-12T18:07:46.786Z,5.57
2017-11-12T18:20:05.412Z,9.00
2017-11-12T18:22:31.704Z,6.67
2017-11-12T18:34:44.456Z,10.70
2017-11-12T18:37:10.793Z,10.20
2017-11-12T18:39:38.271Z,15.63
2017-11-12T18:42:04.710Z,11.30
2017-11-12T18:54:17.778Z,7.97
2017-11-12T18:59:51.625Z,7.57
2017-11-12T19:02:25.662Z,12.73
2017-11-12T19:05:01.980Z,16.23
2017-11-12T19:07:33.077Z,15.30
2017-11-12T19:10:00.998Z,10.13
2017-11-12T19:12:28.455Z,8.00
2017-11-12T19:14:59.669Z,7.53
2017-11-12T19:17:27.423Z,11.83
2017-11-12T19:20:03.922Z,5.73
2017-11-12T19:22:33.228Z,6.63
2017-11-12T19:25:00.280Z,8.40
2017-11-12T19:27:29.727Z,13.80
2017-11-12T19:30:02.976Z,22.30
2017-11-12T19:32:30.582Z,19.43
2017-11-12T19:34:59.245Z,10.77
2017-11-12T19:37:28.056Z,12.93
2017-11-12T19:39:57.764Z,12.97
2017-11-12T19:42:26.289Z,13.03
2017-11-12T19:45:00.576Z,11.43
2017-11-12T19:47:29.072Z,10.80
2017-11-12T19:49:57.048Z,11.73
2017-11-12T20:02:11.194Z,12.30
2017-11-12T20:04:39.108Z,10.40
2017-11-12T20:07:07.056Z,12.70
2017-11-12T20:09:34.533Z,12.10
2017-11-12T20:21:48.183Z,17.77
2017-11-12T20:37:14.991Z,15.00
2017-11-12T20:39:45.531Z,13.07
2017-11-12T20:42:20.216Z,15.90
2017-11-12T20:44:47.094Z,17.37
2017-11-12T20:47:14.724Z,21.40
2017-11-12T20:49:42.798Z,18.80
2017-11-12T20:52:12.599Z,16.93
2017-11-12T20:54:39.397Z,21.87
2017-11-12T20:57:09.336Z,10.97
2017-11-12T20:59:37.567Z,17.67
2017-11-12T21:02:04.347Z,14.63
2017-11-12T21:04:32.433Z,21.00
2017-11-12T21:06:59.053Z,10.77
2017-11-12T21:19:32.065Z,18.97
2017-11-12T21:21:59.990Z,13.97
2017-11-12T21:24:29.205Z,12.50
2017-11-12T21:29:58.614Z,14.13
2017-11-12T21:32:33.691Z,21.83
2017-11-12T21:35:01.786Z,13.90
2017-11-12T21:37:29.077Z,15.97
2017-11-12T21:39:56.104Z,12.43
2017-11-12T21:42:22.897Z,12.07
2017-11-12T21:44:50.093Z,18.37
2017-11-12T21:47:24.282Z,15.43
2017-11-12T21:49:53.912Z,23.33
2017-11-12T21:52:22.741Z,13.33
2017-11-12T21:54:50.672Z,22.07
2017-11-12T21:57:18.300Z,21.20
2017-11-12T21:59:44.868Z,12.13
2017-11-12T22:02:12.856Z,14.03
2017-11-12T22:04:39.261Z,14.13
2017-11-12T22:07:05.541Z,12.23
2017-11-12T22:09:35.516Z,23.53
2017-11-12T22:12:01.876Z,9.03
2017-11-12T22:14:28.119Z,11.50
2017-11-12T22:16:55.466Z,11.13
2017-11-12T22:19:23.296Z,9.17
2017-11-12T22:21:49.612Z,8.90
2017-11-12T22:24:17.209Z,9.53
2017-11-12T22:26:43.438Z,19.73
2017-11-12T22:29:13.163Z,10.23
2017-11-12T22:31:41.410Z,12.13
2017-11-12T22:34:08.052Z,11.87
2017-11-12T22:36:34.397Z,8.53
2017-11-12T22:39:00.835Z,11.77
2017-11-12T22:41:27.924Z,13.40
2017-11-12T22:43:54.990Z,12.50
2017-11-12T22:46:23.316Z,13.27
2017-11-12T22:48:50.508Z,10.87
2017-11-12T22:51:16.708Z,12.83
2017-11-12T22:53:44.309Z,10.40
2017-11-12T22:56:10.611Z,13.50
2017-11-12T22:58:36.860Z,13.97
2017-11-12T23:01:06.305Z,19.57
2017-11-12T23:03:34.138Z,11.20
2017-11-12T23:06:02.130Z,10.80
2017-11-12T23:08:29.919Z,15.60
2017-11-12T23:10:57.671Z,12.77
2017-11-12T23:13:25.383Z,10.80
2017-11-12T23:15:53.040Z,11.43
2017-11-12T23:18:19.266Z,14.83
2017-11-12T23:20:49.744Z,11.63
2017-11-12T23:23:16.995Z,14.77
2017-11-12T23:25:43.310Z,12.43
2017-11-12T23:28:10.472Z,11.60
2017-11-12T23:30:38.018Z,11.83
2017-11-12T23:33:07.025Z,11.30
2017-11-12T23:35:36.368Z,11.30
2017-11-12T23:38:05.163Z,14.93
2017-11-12T23:40:32.110Z,14.87
2017-11-12T23:43:02.063Z,13.93
2017-11-12T23:45:29.076Z,24.83
2017-11-12T23:47:56.794Z,19.90
2017-11-12T23:50:23.449Z,15.70
2017-11-12T23:52:54.691Z,15.40
2017-11-12T23:55:21.514Z,13.87
2017-11-12T23:57:47.760Z,13.80
